sensor_id;sensor_type;location;lat;lon;timestamp;P1;durP1;ratioP1;P2;durP2;ratioP2
12296;SDS011;6211;49.124;9.152;2024-03-17T00:00:24;8.07;;;5.22;;
12296;SDS011;6211;49.124;9.152;2024-03-17T00:02:51;11.57;;;4.65;;
12296;SDS011;6211;49.124;9.152;2024-03-17T00:05:18;14.48;;;5.90;;
12296;SDS011;6211;49.124;9.152;2024-03-17T00:07:46;7.35;;;5.15;;
12296;SDS011;6211;49.124;9.152;2024-03-17T00:10:12;7.10;;;5.30;;
12296;SDS011;6211;49.124;9.152;2024-03-17T00:12:40;7.93;;;5.70;;
12296;SDS011;6211;49.124;9.152;2024-03-17T00:15:06;11.35;;;5.13;;
12296;SDS011;6211;49.124;9.152;2024-03-17T00:17:34;8.73;;;5.70;;
12296;SDS011;6211;49.124;9.152;2024-03-17T00:20:00;8.60;;;5.40;;
12296;SDS011;6211;49.124;9.152;2024-03-17T00:22:33;6.32;;;4.72;;
12296;SDS011;6211;49.124;9.152;2024-03-17T00:25:03;7.43;;;5.50;;
12296;SDS011;6211;49.124;9.152;2024-03-17T00:27:31;6.85;;;4.63;;
12296;SDS011;6211;49.124;9.152;2024-03-17T00:29:57;8.20;;;5.35;;
12296;SDS011;6211;49.124;9.152;2024-03-17T00:32:24;5.88;;;4.63;;
12296;SDS011;6211;49.124;9.152;2024-03-17T00:34:50;7.05;;;5.85;;
12296;SDS011;6211;49.124;9.152;2024-03-17T00:37:18;5.57;;;4.72;;
12296;SDS011;6211;49.124;9.152;2024-03-17T00:39:44;6.13;;;4.38;;
12296;SDS011;6211;49.124;9.152;2024-03-17T00:42:13;7.97;;;5.10;;
12296;SDS011;6211;49.124;9.152;2024-03-17T00:44:39;7.63;;;5.20;;
12296;SDS011;6211;49.124;9.152;2024-03-17T00:47:06;5.85;;;4.68;;
12296;SDS011;6211;49.124;9.152;2024-03-17T00:49:33;5.47;;;4.05;;
12296;SDS011;6211;49.124;9.152;2024-03-17T00:52:00;6.75;;;4.57;;
12296;SDS011;6211;49.124;9.152;2024-03-17T00:54:26;6.13;;;4.13;;
12296;SDS011;6211;49.124;9.152;2024-03-17T00:56:53;4.40;;;3.95;;
12296;SDS011;6211;49.124;9.152;2024-03-17T00:59:21;6.22;;;4.60;;
12296;SDS011;6211;49.124;9.152;2024-03-17T01:01:48;5.97;;;4.82;;
12296;SDS011;6211;49.124;9.152;2024-03-17T01:04:14;5.95;;;4.82;;
12296;SDS011;6211;49.124;9.152;2024-03-17T01:06:41;6.65;;;4.85;;
12296;SDS011;6211;49.124;9.152;2024-03-17T01:09:08;6.25;;;4.60;;
12296;SDS011;6211;49.124;9.152;2024-03-17T01:11:35;7.28;;;4.65;;
12296;SDS011;6211;49.124;9.152;2024-03-17T01:14:01;7.30;;;4.35;;
12296;SDS011;6211;49.124;9.152;2024-03-17T01:16:30;5.53;;;4.20;;
12296;SDS011;6211;49.124;9.152;2024-03-17T01:18:56;7.38;;;4.97;;
12296;SDS011;6211;49.124;9.152;2024-03-17T01:21:23;6.30;;;4.65;;
12296;SDS011;6211;49.124;9.152;2024-03-17T01:23:49;7.95;;;5.15;;
12296;SDS011;6211;49.124;9.152;2024-03-17T01:26:16;8.50;;;4.88;;
12296;SDS011;6211;49.124;9.152;2024-03-17T01:28:43;6.05;;;4.63;;
12296;SDS011;6211;49.124;9.152;2024-03-17T01:31:10;6.22;;;4.50;;
12296;SDS011;6211;49.124;9.152;2024-03-17T01:33:37;7.22;;;5.07;;
12296;SDS011;6211;49.124;9.152;2024-03-17T01:36:04;5.72;;;4.13;;
12296;SDS011;6211;49.124;9.152;2024-03-17T01:38:32;6.10;;;4.18;;
12296;SDS011;6211;49.124;9.152;2024-03-17T01:40:58;7.82;;;5.10;;
12296;SDS011;6211;49.124;9.152;2024-03-17T01:43:26;6.45;;;5.10;;
12296;SDS011;6211;49.124;9.152;2024-03-17T01:45:52;5.57;;;4.43;;
12296;SDS011;6211;49.124;9.152;2024-03-17T01:48:20;5.00;;;3.85;;
12296;SDS011;6211;49.124;9.152;2024-03-17T01:50:49;4.60;;;4.18;;
12296;SDS011;6211;49.124;9.152;2024-03-17T01:53:17;7.60;;;4.35;;
12296;SDS011;6211;49.124;9.152;2024-03-17T01:55:43;4.32;;;3.92;;
12296;SDS011;6211;49.124;9.152;2024-03-17T01:58:11;5.78;;;4.57;;
12296;SDS011;6211;49.124;9.152;2024-03-17T02:00:38;6.75;;;4.68;;
12296;SDS011;6211;49.124;9.152;2024-03-17T02:03:05;6.43;;;4.85;;
12296;SDS011;6211;49.124;9.152;2024-03-17T02:05:33;7.68;;;5.53;;
12296;SDS011;6211;49.124;9.152;2024-03-17T02:08:03;8.23;;;4.07;;
12296;SDS011;6211;49.124;9.152;2024-03-17T02:10:30;7.78;;;4.50;;
12296;SDS011;6211;49.124;9.152;2024-03-17T02:12:57;7.93;;;5.25;;
12296;SDS011;6211;49.124;9.152;2024-03-17T02:15:24;7.88;;;5.03;;
12296;SDS011;6211;49.124;9.152;2024-03-17T02:17:51;7.40;;;5.03;;
12296;SDS011;6211;49.124;9.152;2024-03-17T02:20:18;6.65;;;4.97;;
12296;SDS011;6211;49.124;9.152;2024-03-17T02:22:48;7.47;;;4.80;;
12296;SDS011;6211;49.124;9.152;2024-03-17T02:25:14;5.70;;;4.38;;
12296;SDS011;6211;49.124;9.152;2024-03-17T02:27:42;7.28;;;5.40;;
12296;SDS011;6211;49.124;9.152;2024-03-17T02:30:08;7.35;;;4.38;;
12296;SDS011;6211;49.124;9.152;2024-03-17T02:32:35;5.63;;;4.30;;
12296;SDS011;6211;49.124;9.152;2024-03-17T02:35:02;6.80;;;4.53;;
12296;SDS011;6211;49.124;9.152;2024-03-17T02:37:30;6.63;;;5.03;;
12296;SDS011;6211;49.124;9.152;2024-03-17T02:39:58;8.25;;;5.40;;
12296;SDS011;6211;49.124;9.152;2024-03-17T02:42:25;9.60;;;4.80;;
12296;SDS011;6211;49.124;9.152;2024-03-17T02:44:52;7.32;;;5.15;;
12296;SDS011;6211;49.124;9.152;2024-03-17T02:47:19;6.38;;;4.30;;
12296;SDS011;6211;49.124;9.152;2024-03-17T02:49:47;8.40;;;4.63;;
12296;SDS011;6211;49.124;9.152;2024-03-17T02:52:15;7.55;;;5.53;;
12296;SDS011;6211;49.124;9.152;2024-03-17T02:54:43;7.07;;;4.93;;
12296;SDS011;6211;49.124;9.152;2024-03-17T02:57:12;6.43;;;4.70;;
12296;SDS011;6211;49.124;9.152;2024-03-17T02:59:39;7.00;;;5.35;;
12296;SDS011;6211;49.124;9.152;2024-03-17T03:02:06;5.88;;;4.47;;
12296;SDS011;6211;49.124;9.152;2024-03-17T03:04:33;4.50;;;4.07;;
12296;SDS011;6211;49.124;9.152;2024-03-17T03:07:00;5.32;;;3.83;;
12296;SDS011;6211;49.124;9.152;2024-03-17T03:09:28;5.68;;;4.32;;
12296;SDS011;6211;49.124;9.152;2024-03-17T03:11:57;5.97;;;4.75;;
12296;SDS011;6211;49.124;9.152;2024-03-17T03:14:26;6.05;;;4.80;;
12296;SDS011;6211;49.124;9.152;2024-03-17T03:16:53;5.20;;;4.32;;
12296;SDS011;6211;49.124;9.152;2024-03-17T03:19:20;6.35;;;4.57;;
12296;SDS011;6211;49.124;9.152;2024-03-17T03:21:47;5.95;;;4.43;;
12296;SDS011;6211;49.124;9.152;2024-03-17T03:24:15;8.40;;;5.28;;
12296;SDS011;6211;49.124;9.152;2024-03-17T03:26:42;14.77;;;5.25;;
12296;SDS011;6211;49.124;9.152;2024-03-17T03:29:09;8.65;;;5.32;;
12296;SDS011;6211;49.124;9.152;2024-03-17T03:31:38;10.88;;;4.32;;
12296;SDS011;6211;49.124;9.152;2024-03-17T03:34:05;15.43;;;4.22;;
12296;SDS011;6211;49.124;9.152;2024-03-17T03:36:33;16.13;;;4.78;;
12296;SDS011;6211;49.124;9.152;2024-03-17T03:39:00;5.18;;;3.72;;
12296;SDS011;6211;49.124;9.152;2024-03-17T03:41:29;5.43;;;4.47;;
12296;SDS011;6211;49.124;9.152;2024-03-17T03:43:56;8.38;;;3.85;;
12296;SDS011;6211;49.124;9.152;2024-03-17T03:46:23;4.22;;;3.42;;
12296;SDS011;6211;49.124;9.152;2024-03-17T03:48:53;5.53;;;4.95;;
12296;SDS011;6211;49.124;9.152;2024-03-17T03:51:20;7.93;;;4.95;;
12296;SDS011;6211;49.124;9.152;2024-03-17T03:53:47;13.05;;;5.57;;
12296;SDS011;6211;49.124;9.152;2024-03-17T03:56:14;11.95;;;5.65;;
12296;SDS011;6211;49.124;9.152;2024-03-17T03:58:41;7.78;;;4.05;;
12296;SDS011;6211;49.124;9.152;2024-03-17T04:01:11;8.13;;;4.05;;
12296;SDS011;6211;49.124;9.152;2024-03-17T04:03:40;4.43;;;3.72;;
12296;SDS011;6211;49.124;9.152;2024-03-17T04:06:10;8.48;;;4.13;;
12296;SDS011;6211;49.124;9.152;2024-03-17T04:08:40;6.75;;;3.90;;
12296;SDS011;6211;49.124;9.152;2024-03-17T04:11:08;7.60;;;4.10;;
12296;SDS011;6211;49.124;9.152;2024-03-17T04:13:36;4.80;;;3.92;;
12296;SDS011;6211;49.124;9.152;2024-03-17T04:16:04;5.68;;;4.65;;
12296;SDS011;6211;49.124;9.152;2024-03-17T04:18:31;7.05;;;4.70;;
12296;SDS011;6211;49.124;9.152;2024-03-17T04:21:00;7.45;;;5.20;;
12296;SDS011;6211;49.124;9.152;2024-03-17T04:23:29;5.75;;;4.50;;
12296;SDS011;6211;49.124;9.152;2024-03-17T04:25:57;6.43;;;4.57;;
12296;SDS011;6211;49.124;9.152;2024-03-17T04:28:24;6.78;;;5.18;;
12296;SDS011;6211;49.124;9.152;2024-03-17T04:30:51;6.47;;;5.22;;
12296;SDS011;6211;49.124;9.152;2024-03-17T04:33:18;6.25;;;5.00;;
12296;SDS011;6211;49.124;9.152;2024-03-17T04:35:46;11.20;;;4.88;;
12296;SDS011;6211;49.124;9.152;2024-03-17T04:38:13;8.93;;;5.43;;
12296;SDS011;6211;49.124;9.152;2024-03-17T04:40:42;6.10;;;5.20;;
12296;SDS011;6211;49.124;9.152;2024-03-17T04:43:10;5.80;;;4.45;;
12296;SDS011;6211;49.124;9.152;2024-03-17T04:45:37;6.97;;;5.25;;
12296;SDS011;6211;49.124;9.152;2024-03-17T04:48:05;7.25;;;4.93;;
12296;SDS011;6211;49.124;9.152;2024-03-17T04:50:32;8.15;;;4.82;;
12296;SDS011;6211;49.124;9.152;2024-03-17T04:52:59;6.32;;;4.63;;
12296;SDS011;6211;49.124;9.152;2024-03-17T04:55:26;6.68;;;5.13;;
12296;SDS011;6211;49.124;9.152;2024-03-17T04:57:55;5.22;;;4.47;;
12296;SDS011;6211;49.124;9.152;2024-03-17T05:00:22;8.18;;;5.53;;
12296;SDS011;6211;49.124;9.152;2024-03-17T05:02:49;4.70;;;3.90;;
12296;SDS011;6211;49.124;9.152;2024-03-17T05:05:16;5.20;;;3.88;;
12296;SDS011;6211;49.124;9.152;2024-03-17T05:07:43;5.65;;;4.78;;
12296;SDS011;6211;49.124;9.152;2024-03-17T05:10:10;6.53;;;4.25;;
12296;SDS011;6211;49.124;9.152;2024-03-17T05:12:38;6.80;;;4.57;;
12296;SDS011;6211;49.124;9.152;2024-03-17T05:15:07;7.88;;;5.05;;
12296;SDS011;6211;49.124;9.152;2024-03-17T05:17:34;7.72;;;5.28;;
12296;SDS011;6211;49.124;9.152;2024-03-17T05:20:01;8.10;;;5.28;;
12296;SDS011;6211;49.124;9.152;2024-03-17T05:22:28;10.75;;;5.95;;
12296;SDS011;6211;49.124;9.152;2024-03-17T05:24:55;8.95;;;5.20;;
12296;SDS011;6211;49.124;9.152;2024-03-17T05:27:23;13.43;;;4.97;;
12296;SDS011;6211;49.124;9.152;2024-03-17T05:29:50;17.02;;;5.35;;
12296;SDS011;6211;49.124;9.152;2024-03-17T05:32:18;10.05;;;5.28;;
12296;SDS011;6211;49.124;9.152;2024-03-17T05:34:45;8.65;;;5.80;;
12296;SDS011;6211;49.124;9.152;2024-03-17T05:37:12;11.82;;;5.45;;
12296;SDS011;6211;49.124;9.152;2024-03-17T05:39:40;13.23;;;5.63;;
12296;SDS011;6211;49.124;9.152;2024-03-17T05:42:07;13.15;;;5.00;;
12296;SDS011;6211;49.124;9.152;2024-03-17T05:44:34;7.93;;;5.57;;
12296;SDS011;6211;49.124;9.152;2024-03-17T05:47:15;9.13;;;6.45;;
12296;SDS011;6211;49.124;9.152;2024-03-17T05:49:43;13.18;;;5.50;;
12296;SDS011;6211;49.124;9.152;2024-03-17T05:52:10;15.30;;;5.45;;
12296;SDS011;6211;49.124;9.152;2024-03-17T05:54:37;9.27;;;5.47;;
12296;SDS011;6211;49.124;9.152;2024-03-17T05:57:04;13.52;;;5.57;;
12296;SDS011;6211;49.124;9.152;2024-03-17T05:59:34;8.15;;;5.20;;
12296;SDS011;6211;49.124;9.152;2024-03-17T06:02:01;28.73;;;5.35;;
12296;SDS011;6211;49.124;9.152;2024-03-17T06:04:28;28.17;;;6.05;;
12296;SDS011;6211;49.124;9.152;2024-03-17T06:06:56;13.10;;;5.30;;
12296;SDS011;6211;49.124;9.152;2024-03-17T06:09:25;11.93;;;5.65;;
12296;SDS011;6211;49.124;9.152;2024-03-17T06:11:52;14.50;;;5.60;;
12296;SDS011;6211;49.124;9.152;2024-03-17T06:14:19;10.75;;;6.03;;
12296;SDS011;6211;49.124;9.152;2024-03-17T06:16:46;18.23;;;5.40;;
12296;SDS011;6211;49.124;9.152;2024-03-17T06:19:13;23.42;;;4.82;;
12296;SDS011;6211;49.124;9.152;2024-03-17T06:21:40;33.78;;;5.20;;
12296;SDS011;6211;49.124;9.152;2024-03-17T06:24:09;45.30;;;5.50;;
12296;SDS011;6211;49.124;9.152;2024-03-17T06:26:36;12.27;;;5.18;;
12296;SDS011;6211;49.124;9.152;2024-03-17T06:29:03;11.15;;;4.70;;
12296;SDS011;6211;49.124;9.152;2024-03-17T06:31:30;13.45;;;5.03;;
12296;SDS011;6211;49.124;9.152;2024-03-17T06:33:57;16.33;;;5.35;;
12296;SDS011;6211;49.124;9.152;2024-03-17T06:36:24;19.38;;;5.22;;
12296;SDS011;6211;49.124;9.152;2024-03-17T06:38:51;21.08;;;5.00;;
12296;SDS011;6211;49.124;9.152;2024-03-17T06:41:21;21.88;;;4.63;;
12296;SDS011;6211;49.124;9.152;2024-03-17T06:43:48;6.43;;;4.63;;
12296;SDS011;6211;49.124;9.152;2024-03-17T06:46:15;7.60;;;4.72;;
12296;SDS011;6211;49.124;9.152;2024-03-17T06:48:42;16.30;;;4.57;;
12296;SDS011;6211;49.124;9.152;2024-03-17T06:51:11;13.45;;;5.32;;
12296;SDS011;6211;49.124;9.152;2024-03-17T06:53:38;23.35;;;5.07;;
12296;SDS011;6211;49.124;9.152;2024-03-17T06:56:05;14.23;;;5.30;;
12296;SDS011;6211;49.124;9.152;2024-03-17T06:58:34;6.88;;;5.03;;
12296;SDS011;6211;49.124;9.152;2024-03-17T07:01:01;6.28;;;4.60;;
12296;SDS011;6211;49.124;9.152;2024-03-17T07:03:29;7.28;;;4.70;;
12296;SDS011;6211;49.124;9.152;2024-03-17T07:05:57;4.95;;;4.43;;
12296;SDS011;6211;49.124;9.152;2024-03-17T07:08:27;7.05;;;5.20;;
12296;SDS011;6211;49.124;9.152;2024-03-17T07:10:54;5.60;;;4.28;;
12296;SDS011;6211;49.124;9.152;2024-03-17T07:13:22;5.90;;;4.43;;
12296;SDS011;6211;49.124;9.152;2024-03-17T07:15:50;5.60;;;4.75;;
12296;SDS011;6211;49.124;9.152;2024-03-17T07:18:17;6.70;;;5.13;;
12296;SDS011;6211;49.124;9.152;2024-03-17T07:20:44;4.97;;;4.47;;
12296;SDS011;6211;49.124;9.152;2024-03-17T07:23:12;6.50;;;5.22;;
12296;SDS011;6211;49.124;9.152;2024-03-17T07:25:40;7.78;;;5.95;;
12296;SDS011;6211;49.124;9.152;2024-03-17T07:28:07;7.22;;;5.35;;
12296;SDS011;6211;49.124;9.152;2024-03-17T07:30:34;7.07;;;5.72;;
12296;SDS011;6211;49.124;9.152;2024-03-17T07:33:03;8.57;;;5.97;;
12296;SDS011;6211;49.124;9.152;2024-03-17T07:35:31;10.52;;;7.00;;
12296;SDS011;6211;49.124;9.152;2024-03-17T07:37:58;9.52;;;6.47;;
12296;SDS011;6211;49.124;9.152;2024-03-17T07:40:25;8.63;;;6.65;;
12296;SDS011;6211;49.124;9.152;2024-03-17T07:42:52;10.30;;;6.30;;
12296;SDS011;6211;49.124;9.152;2024-03-17T07:45:19;7.15;;;6.25;;
12296;SDS011;6211;49.124;9.152;2024-03-17T07:47:46;7.97;;;6.22;;
12296;SDS011;6211;49.124;9.152;2024-03-17T07:50:15;10.10;;;6.25;;
12296;SDS011;6211;49.124;9.152;2024-03-17T07:52:42;7.82;;;6.40;;
12296;SDS011;6211;49.124;9.152;2024-03-17T07:55:10;9.85;;;7.18;;
12296;SDS011;6211;49.124;9.152;2024-03-17T07:57:38;9.18;;;7.35;;
12296;SDS011;6211;49.124;9.152;2024-03-17T08:00:06;8.90;;;7.15;;
12296;SDS011;6211;49.124;9.152;2024-03-17T08:02:40;10.75;;;8.35;;
12296;SDS011;6211;49.124;9.152;2024-03-17T08:05:07;9.38;;;7.35;;
12296;SDS011;6211;49.124;9.152;2024-03-17T08:07:36;11.52;;;8.15;;
12296;SDS011;6211;49.124;9.152;2024-03-17T08:10:03;12.40;;;8.05;;
12296;SDS011;6211;49.124;9.152;2024-03-17T08:12:30;9.60;;;7.47;;
12296;SDS011;6211;49.124;9.152;2024-03-17T08:14:57;9.73;;;7.63;;
12296;SDS011;6211;49.124;9.152;2024-03-17T08:17:25;15.75;;;7.72;;
12296;SDS011;6211;49.124;9.152;2024-03-17T08:19:52;10.32;;;6.63;;
12296;SDS011;6211;49.124;9.152;2024-03-17T08:22:19;8.95;;;6.72;;
12296;SDS011;6211;49.124;9.152;2024-03-17T08:24:47;8.30;;;6.55;;
12296;SDS011;6211;49.124;9.152;2024-03-17T08:27:15;8.02;;;5.78;;
12296;SDS011;6211;49.124;9.152;2024-03-17T08:29:42;6.15;;;5.40;;
12296;SDS011;6211;49.124;9.152;2024-03-17T08:32:09;6.93;;;5.93;;
12296;SDS011;6211;49.124;9.152;2024-03-17T08:34:36;5.85;;;5.25;;
12296;SDS011;6211;49.124;9.152;2024-03-17T08:37:03;9.73;;;5.97;;
12296;SDS011;6211;49.124;9.152;2024-03-17T08:39:30;8.65;;;5.70;;
12296;SDS011;6211;49.124;9.152;2024-03-17T08:41:58;9.15;;;5.53;;
12296;SDS011;6211;49.124;9.152;2024-03-17T08:44:26;6.40;;;4.68;;
12296;SDS011;6211;49.124;9.152;2024-03-17T08:46:53;8.93;;;5.20;;
12296;SDS011;6211;49.124;9.152;2024-03-17T08:49:20;7.00;;;5.18;;
12296;SDS011;6211;49.124;9.152;2024-03-17T08:51:47;4.97;;;4.55;;
12296;SDS011;6211;49.124;9.152;2024-03-17T08:54:14;6.55;;;5.43;;
12296;SDS011;6211;49.124;9.152;2024-03-17T08:56:41;7.38;;;4.78;;
12296;SDS011;6211;49.124;9.152;2024-03-17T08:59:10;5.53;;;4.50;;
12296;SDS011;6211;49.124;9.152;2024-03-17T09:01:38;4.82;;;4.32;;
12296;SDS011;6211;49.124;9.152;2024-03-17T09:04:05;6.00;;;4.82;;
12296;SDS011;6211;49.124;9.152;2024-03-17T09:06:32;7.90;;;5.43;;
12296;SDS011;6211;49.124;9.152;2024-03-17T09:09:00;6.55;;;5.00;;
12296;SDS011;6211;49.124;9.152;2024-03-17T09:11:28;8.35;;;4.75;;
12296;SDS011;6211;49.124;9.152;2024-03-17T09:13:56;5.63;;;4.50;;
12296;SDS011;6211;49.124;9.152;2024-03-17T09:16:25;6.32;;;4.85;;
12296;SDS011;6211;49.124;9.152;2024-03-17T09:18:53;6.50;;;4.80;;
12296;SDS011;6211;49.124;9.152;2024-03-17T09:21:20;7.85;;;5.30;;
12296;SDS011;6211;49.124;9.152;2024-03-17T09:23:48;6.60;;;5.10;;
12296;SDS011;6211;49.124;9.152;2024-03-17T09:26:16;5.95;;;4.65;;
12296;SDS011;6211;49.124;9.152;2024-03-17T09:28:43;5.60;;;4.78;;
12296;SDS011;6211;49.124;9.152;2024-03-17T09:31:10;5.20;;;4.68;;
12296;SDS011;6211;49.124;9.152;2024-03-17T09:33:39;8.40;;;4.68;;
12296;SDS011;6211;49.124;9.152;2024-03-17T09:36:07;6.32;;;4.75;;
12296;SDS011;6211;49.124;9.152;2024-03-17T09:38:36;5.47;;;4.68;;
12296;SDS011;6211;49.124;9.152;2024-03-17T09:41:03;7.55;;;4.38;;
12296;SDS011;6211;49.124;9.152;2024-03-17T09:43:31;5.85;;;4.80;;
12296;SDS011;6211;49.124;9.152;2024-03-17T09:45:59;4.95;;;4.20;;
12296;SDS011;6211;49.124;9.152;2024-03-17T09:48:28;5.47;;;4.65;;
12296;SDS011;6211;49.124;9.152;2024-03-17T09:50:57;5.15;;;4.38;;
12296;SDS011;6211;49.124;9.152;2024-03-17T09:53:25;6.88;;;4.43;;
12296;SDS011;6211;49.124;9.152;2024-03-17T09:55:52;4.80;;;4.20;;
12296;SDS011;6211;49.124;9.152;2024-03-17T09:58:20;5.65;;;4.80;;
12296;SDS011;6211;49.124;9.152;2024-03-17T10:00:47;5.05;;;4.55;;
12296;SDS011;6211;49.124;9.152;2024-03-17T10:03:38;5.03;;;4.32;;
12296;SDS011;6211;49.124;9.152;2024-03-17T10:06:08;6.03;;;4.15;;
12296;SDS011;6211;49.124;9.152;2024-03-17T10:08:40;6.38;;;4.38;;
12296;SDS011;6211;49.124;9.152;2024-03-17T10:11:07;5.13;;;4.07;;
12296;SDS011;6211;49.124;9.152;2024-03-17T10:13:34;5.47;;;4.00;;
12296;SDS011;6211;49.124;9.152;2024-03-17T10:16:01;6.35;;;4.50;;
12296;SDS011;6211;49.124;9.152;2024-03-17T10:18:29;4.53;;;3.95;;
12296;SDS011;6211;49.124;9.152;2024-03-17T10:20:56;4.60;;;4.18;;
12296;SDS011;6211;49.124;9.152;2024-03-17T10:23:27;5.40;;;4.25;;
12296;SDS011;6211;49.124;9.152;2024-03-17T10:25:54;5.88;;;4.53;;
12296;SDS011;6211;49.124;9.152;2024-03-17T10:28:21;4.90;;;4.18;;
12296;SDS011;6211;49.124;9.152;2024-03-17T10:30:57;5.97;;;4.95;;
12296;SDS011;6211;49.124;9.152;2024-03-17T10:33:25;5.10;;;3.75;;
12296;SDS011;6211;49.124;9.152;2024-03-17T10:35:58;5.78;;;4.10;;
12296;SDS011;6211;49.124;9.152;2024-03-17T10:38:27;4.35;;;3.92;;
12296;SDS011;6211;49.124;9.152;2024-03-17T10:40:55;5.82;;;4.13;;
12296;SDS011;6211;49.124;9.152;2024-03-17T10:43:22;5.43;;;4.13;;
12296;SDS011;6211;49.124;9.152;2024-03-17T10:45:51;4.78;;;4.20;;
12296;SDS011;6211;49.124;9.152;2024-03-17T10:48:20;6.82;;;4.43;;
12296;SDS011;6211;49.124;9.152;2024-03-17T10:50:48;4.60;;;4.00;;
12296;SDS011;6211;49.124;9.152;2024-03-17T10:53:19;6.20;;;4.82;;
12296;SDS011;6211;49.124;9.152;2024-03-17T10:55:54;4.70;;;4.18;;
12296;SDS011;6211;49.124;9.152;2024-03-17T10:58:28;5.40;;;4.10;;
12296;SDS011;6211;49.124;9.152;2024-03-17T11:00:59;6.78;;;4.50;;
12296;SDS011;6211;49.124;9.152;2024-03-17T11:03:28;6.03;;;4.28;;
12296;SDS011;6211;49.124;9.152;2024-03-17T11:05:56;5.90;;;4.60;;
12296;SDS011;6211;49.124;9.152;2024-03-17T11:08:23;4.60;;;4.13;;
12296;SDS011;6211;49.124;9.152;2024-03-17T11:10:51;4.35;;;3.58;;
12296;SDS011;6211;49.124;9.152;2024-03-17T11:13:25;6.07;;;4.50;;
12296;SDS011;6211;49.124;9.152;2024-03-17T11:15:53;4.63;;;4.10;;
12296;SDS011;6211;49.124;9.152;2024-03-17T11:18:27;6.47;;;4.63;;
12296;SDS011;6211;49.124;9.152;2024-03-17T11:20:58;5.78;;;4.57;;
12296;SDS011;6211;49.124;9.152;2024-03-17T11:23:27;3.75;;;3.42;;
12296;SDS011;6211;49.124;9.152;2024-03-17T11:25:55;3.78;;;3.35;;
12296;SDS011;6211;49.124;9.152;2024-03-17T11:33:51;6.22;;;4.03;;
12296;SDS011;6211;49.124;9.152;2024-03-17T11:36:32;4.45;;;3.22;;
12296;SDS011;6211;49.124;9.152;2024-03-17T11:38:59;5.38;;;4.20;;
12296;SDS011;6211;49.124;9.152;2024-03-17T11:41:36;3.83;;;2.25;;
12296;SDS011;6211;49.124;9.152;2024-03-17T11:46:50;2.25;;;1.98;;
12296;SDS011;6211;49.124;9.152;2024-03-17T11:49:18;5.47;;;2.10;;
12296;SDS011;6211;49.124;9.152;2024-03-17T11:51:45;2.50;;;1.95;;
12296;SDS011;6211;49.124;9.152;2024-03-17T11:54:13;2.20;;;2.00;;
12296;SDS011;6211;49.124;9.152;2024-03-17T11:56:43;3.67;;;1.65;;
12296;SDS011;6211;49.124;9.152;2024-03-17T11:59:10;3.08;;;1.80;;
12296;SDS011;6211;49.124;9.152;2024-03-17T12:01:37;3.65;;;1.65;;
12296;SDS011;6211;49.124;9.152;2024-03-17T12:04:06;3.20;;;2.05;;
12296;SDS011;6211;49.124;9.152;2024-03-17T12:06:35;4.72;;;2.00;;
12296;SDS011;6211;49.124;9.152;2024-03-17T12:09:08;2.38;;;1.70;;
12296;SDS011;6211;49.124;9.152;2024-03-17T12:11:36;3.20;;;2.03;;
12296;SDS011;6211;49.124;9.152;2024-03-17T12:14:09;2.45;;;1.67;;
12296;SDS011;6211;49.124;9.152;2024-03-17T12:16:45;2.30;;;2.10;;
12296;SDS011;6211;49.124;9.152;2024-03-17T12:19:13;2.17;;;1.85;;
12296;SDS011;6211;49.124;9.152;2024-03-17T12:21:42;2.58;;;2.05;;
12296;SDS011;6211;49.124;9.152;2024-03-17T12:24:09;3.42;;;2.13;;
12296;SDS011;6211;49.124;9.152;2024-03-17T12:26:40;2.42;;;2.20;;
12296;SDS011;6211;49.124;9.152;2024-03-17T12:29:20;3.45;;;2.03;;
12296;SDS011;6211;49.124;9.152;2024-03-17T12:31:49;2.50;;;2.00;;
12296;SDS011;6211;49.124;9.152;2024-03-17T12:34:16;2.25;;;2.05;;
12296;SDS011;6211;49.124;9.152;2024-03-17T12:36:45;2.42;;;2.22;;
12296;SDS011;6211;49.124;9.152;2024-03-17T12:39:18;1.80;;;1.70;;
12296;SDS011;6211;49.124;9.152;2024-03-17T12:41:45;2.67;;;1.80;;
12296;SDS011;6211;49.124;9.152;2024-03-17T12:44:21;1.77;;;1.60;;
12296;SDS011;6211;49.124;9.152;2024-03-17T12:46:48;2.35;;;2.05;;
12296;SDS011;6211;49.124;9.152;2024-03-17T12:49:15;2.80;;;2.00;;
12296;SDS011;6211;49.124;9.152;2024-03-17T12:51:41;1.60;;;1.50;;
12296;SDS011;6211;49.124;9.152;2024-03-17T12:54:13;2.47;;;2.28;;
12296;SDS011;6211;49.124;9.152;2024-03-17T12:56:39;2.20;;;1.77;;
12296;SDS011;6211;49.124;9.152;2024-03-17T12:59:24;3.67;;;2.17;;
12296;SDS011;6211;49.124;9.152;2024-03-17T13:02:09;2.25;;;2.05;;
12296;SDS011;6211;49.124;9.152;2024-03-17T13:04:37;2.40;;;2.00;;
12296;SDS011;6211;49.124;9.152;2024-03-17T13:07:10;2.22;;;2.00;;
12296;SDS011;6211;49.124;9.152;2024-03-17T13:09:39;3.80;;;2.17;;
12296;SDS011;6211;49.124;9.152;2024-03-17T13:12:14;3.53;;;1.98;;
12296;SDS011;6211;49.124;9.152;2024-03-17T13:14:42;4.07;;;2.03;;
12296;SDS011;6211;49.124;9.152;2024-03-17T13:17:14;3.30;;;2.33;;
12296;SDS011;6211;49.124;9.152;2024-03-17T13:19:45;4.38;;;2.20;;
12296;SDS011;6211;49.124;9.152;2024-03-17T13:22:12;2.53;;;2.15;;
12296;SDS011;6211;49.124;9.152;2024-03-17T13:24:41;3.08;;;1.90;;
12296;SDS011;6211;49.124;9.152;2024-03-17T13:27:08;2.03;;;1.70;;
12296;SDS011;6211;49.124;9.152;2024-03-17T13:29:35;2.45;;;1.90;;
12296;SDS011;6211;49.124;9.152;2024-03-17T13:32:03;2.58;;;2.00;;
12296;SDS011;6211;49.124;9.152;2024-03-17T13:34:31;3.65;;;2.40;;
12296;SDS011;6211;49.124;9.152;2024-03-17T13:36:58;3.65;;;2.08;;
12296;SDS011;6211;49.124;9.152;2024-03-17T13:39:29;3.13;;;2.10;;
12296;SDS011;6211;49.124;9.152;2024-03-17T13:41:58;2.78;;;2.13;;
12296;SDS011;6211;49.124;9.152;2024-03-17T13:44:28;2.33;;;2.13;;
12296;SDS011;6211;49.124;9.152;2024-03-17T13:46:55;2.10;;;1.63;;
12296;SDS011;6211;49.124;9.152;2024-03-17T13:49:23;3.30;;;2.28;;
12296;SDS011;6211;49.124;9.152;2024-03-17T13:51:50;2.88;;;2.20;;
12296;SDS011;6211;49.124;9.152;2024-03-17T13:54:17;2.35;;;2.15;;
12296;SDS011;6211;49.124;9.152;2024-03-17T13:56:48;2.28;;;2.08;;
12296;SDS011;6211;49.124;9.152;2024-03-17T13:59:16;2.10;;;1.90;;
12296;SDS011;6211;49.124;9.152;2024-03-17T14:01:44;2.40;;;2.20;;
12296;SDS011;6211;49.124;9.152;2024-03-17T14:04:13;3.60;;;2.10;;
12296;SDS011;6211;49.124;9.152;2024-03-17T14:06:41;2.35;;;2.13;;
12296;SDS011;6211;49.124;9.152;2024-03-17T14:09:08;2.30;;;2.10;;
12296;SDS011;6211;49.124;9.152;2024-03-17T14:11:35;2.38;;;2.17;;
12296;SDS011;6211;49.124;9.152;2024-03-17T14:14:03;3.20;;;2.15;;
12296;SDS011;6211;49.124;9.152;2024-03-17T14:16:32;3.08;;;1.98;;
12296;SDS011;6211;49.124;9.152;2024-03-17T14:18:59;3.83;;;2.08;;
12296;SDS011;6211;49.124;9.152;2024-03-17T14:21:26;2.88;;;2.20;;
12296;SDS011;6211;49.124;9.152;2024-03-17T14:23:53;2.42;;;1.80;;
12296;SDS011;6211;49.124;9.152;2024-03-17T14:26:20;2.80;;;2.30;;
12296;SDS011;6211;49.124;9.152;2024-03-17T14:28:48;3.38;;;2.00;;
12296;SDS011;6211;49.124;9.152;2024-03-17T14:31:16;2.72;;;2.20;;
12296;SDS011;6211;49.124;9.152;2024-03-17T14:33:45;2.92;;;2.20;;
12296;SDS011;6211;49.124;9.152;2024-03-17T14:36:12;3.15;;;2.00;;
12296;SDS011;6211;49.124;9.152;2024-03-17T14:38:39;2.15;;;1.95;;
12296;SDS011;6211;49.124;9.152;2024-03-17T14:41:08;3.05;;;2.17;;
12296;SDS011;6211;49.124;9.152;2024-03-17T14:43:36;1.80;;;1.70;;
12296;SDS011;6211;49.124;9.152;2024-03-17T14:46:03;3.42;;;2.47;;
12296;SDS011;6211;49.124;9.152;2024-03-17T14:48:32;2.83;;;1.80;;
12296;SDS011;6211;49.124;9.152;2024-03-17T14:51:01;3.03;;;2.05;;
12296;SDS011;6211;49.124;9.152;2024-03-17T14:53:28;2.50;;;2.22;;
12296;SDS011;6211;49.124;9.152;2024-03-17T14:55:56;2.58;;;2.03;;
12296;SDS011;6211;49.124;9.152;2024-03-17T14:58:24;2.50;;;1.90;;
12296;SDS011;6211;49.124;9.152;2024-03-17T15:00:51;2.03;;;1.92;;
12296;SDS011;6211;49.124;9.152;2024-03-17T15:03:18;2.55;;;1.88;;
12296;SDS011;6211;49.124;9.152;2024-03-17T15:05:46;2.50;;;1.80;;
12296;SDS011;6211;49.124;9.152;2024-03-17T15:08:14;3.50;;;1.90;;
12296;SDS011;6211;49.124;9.152;2024-03-17T15:10:41;2.13;;;1.83;;
12296;SDS011;6211;49.124;9.152;2024-03-17T15:13:09;2.47;;;2.00;;